メインページ
METAR-TAF:

METAR-TAF

空港 :

キュラソー島, オランダ領アンティル

ハト国際空港

緯度: 12-12N, 経度: 068-58W, 海抜: 9m

現時点の気象観測

当レポートは36分前の01:00(UTC)に作成
の風 11kt
気温 27°C
湿度 89%
気圧 1010 hPa
視程10km以上
1,500メートル以下は雲なし、積乱雲なし

METAR: TNCC 240100Z 09011KT CAVOK 27/25 Q1010 NOSIG

時間: 21:36 (01:36 UTC)

予報

当レポートは3時間36分前の22:00(UTC)に作成
予報は24日の 00時(UTC)から 24日の 24時(UTC)まで有効
の風 14kt
視程10km以上
高度2000ftの雲は散在している

TAF: TNCC 232200Z 2400/2424 09014KT 9999 SCT020

4,000以上の空港の気象観測と天気予報(METAR報とTAF報)

利用可能な観測所は地図上に黄色い丸と赤い丸で示す。

丸の上にカーソルを重ねると観測所名を参照できる。

次にクリックすると気象観測と天気予報を参照できる。

マップの切り替え:黒色「×」印の緑ボタンをクリックして拡大、「-」印の緑ボタンをクリックして縮小、緑色の三角印をクリックして隣りの地図に切り替え


METAR-TAF: